sensor_id;sensor_type;location;lat;lon;timestamp;temperature;humidity
47168;DHT22;32931;47.778;17.806;2023-11-21T00:00:20;9.10;99.90
47168;DHT22;32931;47.778;17.806;2023-11-21T00:02:46;9.10;99.90
47168;DHT22;32931;47.778;17.806;2023-11-21T00:05:14;9.10;99.90
47168;DHT22;32931;47.778;17.806;2023-11-21T00:07:41;9.00;99.90
47168;DHT22;32931;47.778;17.806;2023-11-21T00:10:09;8.90;99.90
47168;DHT22;32931;47.778;17.806;2023-11-21T00:12:37;8.90;99.90
47168;DHT22;32931;47.778;17.806;2023-11-21T00:15:04;8.80;99.90
47168;DHT22;32931;47.778;17.806;2023-11-21T00:17:39;8.70;99.90
47168;DHT22;32931;47.778;17.806;2023-11-21T00:20:06;8.70;99.90
47168;DHT22;32931;47.778;17.806;2023-11-21T00:22:34;8.60;99.90
47168;DHT22;32931;47.778;17.806;2023-11-21T00:25:02;8.60;99.90
47168;DHT22;32931;47.778;17.806;2023-11-21T00:27:30;8.60;99.90
47168;DHT22;32931;47.778;17.806;2023-11-21T00:29:56;8.60;99.90
47168;DHT22;32931;47.778;17.806;2023-11-21T00:32:22;8.60;99.90
47168;DHT22;32931;47.778;17.806;2023-11-21T00:34:48;8.50;99.90
47168;DHT22;32931;47.778;17.806;2023-11-21T00:37:14;8.50;99.90
47168;DHT22;32931;47.778;17.806;2023-11-21T00:39:41;8.50;99.90
47168;DHT22;32931;47.778;17.806;2023-11-21T00:42:07;8.50;99.90
47168;DHT22;32931;47.778;17.806;2023-11-21T00:44:34;8.50;99.90
47168;DHT22;32931;47.778;17.806;2023-11-21T00:47:03;8.50;99.90
47168;DHT22;32931;47.778;17.806;2023-11-21T00:49:29;8.50;99.90
47168;DHT22;32931;47.778;17.806;2023-11-21T00:51:55;8.50;99.90
47168;DHT22;32931;47.778;17.806;2023-11-21T00:54:24;8.40;99.90
47168;DHT22;32931;47.778;17.806;2023-11-21T00:56:50;8.40;99.90
47168;DHT22;32931;47.778;17.806;2023-11-21T00:59:16;8.40;99.90
47168;DHT22;32931;47.778;17.806;2023-11-21T01:01:42;8.40;99.90
47168;DHT22;32931;47.778;17.806;2023-11-21T01:04:08;8.40;99.90
47168;DHT22;32931;47.778;17.806;2023-11-21T01:06:34;8.40;99.90
47168;DHT22;32931;47.778;17.806;2023-11-21T01:09:00;8.30;99.90
47168;DHT22;32931;47.778;17.806;2023-11-21T01:11:27;8.30;99.90
47168;DHT22;32931;47.778;17.806;2023-11-21T01:13:53;8.40;99.90
47168;DHT22;32931;47.778;17.806;2023-11-21T01:16:19;8.30;99.90
47168;DHT22;32931;47.778;17.806;2023-11-21T01:18:45;8.30;99.90
47168;DHT22;32931;47.778;17.806;2023-11-21T01:21:11;8.30;99.90
47168;DHT22;32931;47.778;17.806;2023-11-21T01:23:37;8.30;99.90
47168;DHT22;32931;47.778;17.806;2023-11-21T01:26:04;8.30;99.90
47168;DHT22;32931;47.778;17.806;2023-11-21T01:28:30;8.30;99.90
47168;DHT22;32931;47.778;17.806;2023-11-21T01:30:56;8.30;99.90
47168;DHT22;32931;47.778;17.806;2023-11-21T01:33:23;8.30;99.90
47168;DHT22;32931;47.778;17.806;2023-11-21T01:35:51;8.20;99.90
47168;DHT22;32931;47.778;17.806;2023-11-21T01:38:19;8.20;99.90
47168;DHT22;32931;47.778;17.806;2023-11-21T01:40:45;8.20;99.90
47168;DHT22;32931;47.778;17.806;2023-11-21T01:43:11;8.20;99.90
47168;DHT22;32931;47.778;17.806;2023-11-21T01:45:37;8.20;99.90
47168;DHT22;32931;47.778;17.806;2023-11-21T01:48:05;8.20;99.90
47168;DHT22;32931;47.778;17.806;2023-11-21T01:50:33;8.20;99.90
47168;DHT22;32931;47.778;17.806;2023-11-21T01:53:00;8.20;99.90
47168;DHT22;32931;47.778;17.806;2023-11-21T01:55:27;8.20;99.90
47168;DHT22;32931;47.778;17.806;2023-11-21T01:57:55;8.20;99.90
47168;DHT22;32931;47.778;17.806;2023-11-21T02:00:21;8.10;99.90
47168;DHT22;32931;47.778;17.806;2023-11-21T02:02:48;8.10;99.90
47168;DHT22;32931;47.778;17.806;2023-11-21T02:05:16;8.10;99.90
47168;DHT22;32931;47.778;17.806;2023-11-21T02:07:45;8.10;99.90
47168;DHT22;32931;47.778;17.806;2023-11-21T02:10:14;8.10;99.90
47168;DHT22;32931;47.778;17.806;2023-11-21T02:12:41;8.00;99.90
47168;DHT22;32931;47.778;17.806;2023-11-21T02:15:13;8.10;99.90
47168;DHT22;32931;47.778;17.806;2023-11-21T02:17:46;8.10;99.90
47168;DHT22;32931;47.778;17.806;2023-11-21T02:20:21;8.10;99.90
47168;DHT22;32931;47.778;17.806;2023-11-21T02:22:54;8.10;99.90
47168;DHT22;32931;47.778;17.806;2023-11-21T02:25:28;8.10;99.90
47168;DHT22;32931;47.778;17.806;2023-11-21T02:27:58;8.10;99.90
47168;DHT22;32931;47.778;17.806;2023-11-21T02:30:24;8.00;99.90
47168;DHT22;32931;47.778;17.806;2023-11-21T02:33:00;8.10;99.90
47168;DHT22;32931;47.778;17.806;2023-11-21T02:35:27;8.10;99.90
47168;DHT22;32931;47.778;17.806;2023-11-21T02:37:53;8.10;99.90
47168;DHT22;32931;47.778;17.806;2023-11-21T02:40:20;8.00;99.90
47168;DHT22;32931;47.778;17.806;2023-11-21T02:42:47;8.00;99.90
47168;DHT22;32931;47.778;17.806;2023-11-21T02:45:14;8.00;99.90
47168;DHT22;32931;47.778;17.806;2023-11-21T02:47:43;7.90;99.90
47168;DHT22;32931;47.778;17.806;2023-11-21T02:50:09;7.90;99.90
47168;DHT22;32931;47.778;17.806;2023-11-21T02:52:36;7.90;99.90
47168;DHT22;32931;47.778;17.806;2023-11-21T02:55:03;8.00;99.90
47168;DHT22;32931;47.778;17.806;2023-11-21T02:57:29;8.00;99.90
47168;DHT22;32931;47.778;17.806;2023-11-21T02:59:56;8.00;99.90
47168;DHT22;32931;47.778;17.806;2023-11-21T03:02:22;8.00;99.90
47168;DHT22;32931;47.778;17.806;2023-11-21T03:04:48;8.00;99.90
47168;DHT22;32931;47.778;17.806;2023-11-21T03:07:15;8.00;99.90
47168;DHT22;32931;47.778;17.806;2023-11-21T03:09:41;8.00;99.90
47168;DHT22;32931;47.778;17.806;2023-11-21T03:12:09;7.90;99.90
47168;DHT22;32931;47.778;17.806;2023-11-21T03:14:35;7.90;99.90
47168;DHT22;32931;47.778;17.806;2023-11-21T03:17:01;7.90;99.90
47168;DHT22;32931;47.778;17.806;2023-11-21T03:19:28;7.80;99.90
47168;DHT22;32931;47.778;17.806;2023-11-21T03:21:54;7.90;99.90
47168;DHT22;32931;47.778;17.806;2023-11-21T03:24:20;7.90;99.90
47168;DHT22;32931;47.778;17.806;2023-11-21T03:26:48;7.90;99.90
47168;DHT22;32931;47.778;17.806;2023-11-21T03:29:14;7.90;99.90
47168;DHT22;32931;47.778;17.806;2023-11-21T03:31:41;8.00;99.90
47168;DHT22;32931;47.778;17.806;2023-11-21T03:34:14;8.00;99.90
47168;DHT22;32931;47.778;17.806;2023-11-21T03:36:41;8.00;99.90
47168;DHT22;32931;47.778;17.806;2023-11-21T03:39:07;7.90;99.90
47168;DHT22;32931;47.778;17.806;2023-11-21T03:41:33;7.90;99.90
47168;DHT22;32931;47.778;17.806;2023-11-21T03:44:00;7.90;99.90
47168;DHT22;32931;47.778;17.806;2023-11-21T03:46:26;7.90;99.90
47168;DHT22;32931;47.778;17.806;2023-11-21T03:48:52;7.90;99.90
47168;DHT22;32931;47.778;17.806;2023-11-21T03:51:18;8.00;99.90
47168;DHT22;32931;47.778;17.806;2023-11-21T03:53:44;8.00;99.90
47168;DHT22;32931;47.778;17.806;2023-11-21T03:56:10;8.00;99.90
47168;DHT22;32931;47.778;17.806;2023-11-21T03:58:36;7.90;99.90
47168;DHT22;32931;47.778;17.806;2023-11-21T04:01:03;7.90;99.90
47168;DHT22;32931;47.778;17.806;2023-11-21T04:03:29;7.90;99.90
47168;DHT22;32931;47.778;17.806;2023-11-21T04:05:55;7.70;99.90
47168;DHT22;32931;47.778;17.806;2023-11-21T04:08:21;7.70;99.90
47168;DHT22;32931;47.778;17.806;2023-11-21T04:10:48;7.60;99.90
47168;DHT22;32931;47.778;17.806;2023-11-21T04:13:14;7.70;99.90
47168;DHT22;32931;47.778;17.806;2023-11-21T04:15:40;7.70;99.90
47168;DHT22;32931;47.778;17.806;2023-11-21T04:18:06;7.80;99.90
47168;DHT22;32931;47.778;17.806;2023-11-21T04:20:32;7.80;99.90
47168;DHT22;32931;47.778;17.806;2023-11-21T04:22:59;7.90;99.90
47168;DHT22;32931;47.778;17.806;2023-11-21T04:25:25;7.90;99.90
47168;DHT22;32931;47.778;17.806;2023-11-21T04:27:51;7.90;99.90
47168;DHT22;32931;47.778;17.806;2023-11-21T04:30:17;7.90;99.90
47168;DHT22;32931;47.778;17.806;2023-11-21T04:32:43;7.90;99.90
47168;DHT22;32931;47.778;17.806;2023-11-21T04:35:09;7.90;99.90
47168;DHT22;32931;47.778;17.806;2023-11-21T04:37:36;7.90;99.90
47168;DHT22;32931;47.778;17.806;2023-11-21T04:40:03;7.90;99.90
47168;DHT22;32931;47.778;17.806;2023-11-21T04:42:35;7.90;99.90
47168;DHT22;32931;47.778;17.806;2023-11-21T04:45:04;7.90;99.90
47168;DHT22;32931;47.778;17.806;2023-11-21T04:47:34;7.90;99.90
47168;DHT22;32931;47.778;17.806;2023-11-21T04:50:00;7.90;99.90
47168;DHT22;32931;47.778;17.806;2023-11-21T04:52:26;7.90;99.90
47168;DHT22;32931;47.778;17.806;2023-11-21T04:54:52;7.90;99.90
47168;DHT22;32931;47.778;17.806;2023-11-21T04:57:20;7.80;99.90
47168;DHT22;32931;47.778;17.806;2023-11-21T04:59:48;7.80;99.90
47168;DHT22;32931;47.778;17.806;2023-11-21T05:02:15;7.80;99.90
47168;DHT22;32931;47.778;17.806;2023-11-21T05:04:41;7.80;99.90
47168;DHT22;32931;47.778;17.806;2023-11-21T05:07:08;7.80;99.90
47168;DHT22;32931;47.778;17.806;2023-11-21T05:09:34;7.80;99.90
47168;DHT22;32931;47.778;17.806;2023-11-21T05:12:01;7.80;99.90
47168;DHT22;32931;47.778;17.806;2023-11-21T05:14:28;7.80;99.90
47168;DHT22;32931;47.778;17.806;2023-11-21T05:16:54;7.80;99.90
47168;DHT22;32931;47.778;17.806;2023-11-21T05:19:20;7.80;99.90
47168;DHT22;32931;47.778;17.806;2023-11-21T05:21:47;7.70;99.90
47168;DHT22;32931;47.778;17.806;2023-11-21T05:24:13;7.80;99.90
47168;DHT22;32931;47.778;17.806;2023-11-21T05:26:39;7.80;99.90
47168;DHT22;32931;47.778;17.806;2023-11-21T05:29:05;7.80;99.90
47168;DHT22;32931;47.778;17.806;2023-11-21T05:31:31;7.80;99.90
47168;DHT22;32931;47.778;17.806;2023-11-21T05:33:57;7.80;99.90
47168;DHT22;32931;47.778;17.806;2023-11-21T05:36:23;7.80;99.90
47168;DHT22;32931;47.778;17.806;2023-11-21T05:38:49;7.90;99.90
47168;DHT22;32931;47.778;17.806;2023-11-21T05:41:16;7.90;99.90
47168;DHT22;32931;47.778;17.806;2023-11-21T05:43:42;7.90;99.90
47168;DHT22;32931;47.778;17.806;2023-11-21T05:46:08;7.90;99.90
47168;DHT22;32931;47.778;17.806;2023-11-21T05:48:35;7.90;99.90
47168;DHT22;32931;47.778;17.806;2023-11-21T05:51:05;7.90;99.90
47168;DHT22;32931;47.778;17.806;2023-11-21T05:53:32;7.90;99.90
47168;DHT22;32931;47.778;17.806;2023-11-21T05:55:58;7.90;99.90
47168;DHT22;32931;47.778;17.806;2023-11-21T05:58:24;7.90;99.90
47168;DHT22;32931;47.778;17.806;2023-11-21T06:00:50;7.90;99.90
47168;DHT22;32931;47.778;17.806;2023-11-21T06:03:17;7.90;99.90
47168;DHT22;32931;47.778;17.806;2023-11-21T06:05:43;7.90;99.90
47168;DHT22;32931;47.778;17.806;2023-11-21T06:08:09;7.90;99.90
47168;DHT22;32931;47.778;17.806;2023-11-21T06:10:36;7.90;99.90
47168;DHT22;32931;47.778;17.806;2023-11-21T06:13:02;8.00;99.90
47168;DHT22;32931;47.778;17.806;2023-11-21T06:15:30;7.90;99.90
47168;DHT22;32931;47.778;17.806;2023-11-21T06:17:56;8.00;99.90
47168;DHT22;32931;47.778;17.806;2023-11-21T06:20:23;8.00;99.90
47168;DHT22;32931;47.778;17.806;2023-11-21T06:22:50;8.00;99.90
47168;DHT22;32931;47.778;17.806;2023-11-21T06:25:16;8.00;99.90
47168;DHT22;32931;47.778;17.806;2023-11-21T06:27:45;8.00;99.90
47168;DHT22;32931;47.778;17.806;2023-11-21T06:30:12;8.00;99.90
47168;DHT22;32931;47.778;17.806;2023-11-21T06:32:39;8.00;99.90
47168;DHT22;32931;47.778;17.806;2023-11-21T06:35:06;8.10;99.90
47168;DHT22;32931;47.778;17.806;2023-11-21T06:37:32;8.10;99.90
47168;DHT22;32931;47.778;17.806;2023-11-21T06:40:00;8.10;99.90
47168;DHT22;32931;47.778;17.806;2023-11-21T06:42:27;8.20;99.90
47168;DHT22;32931;47.778;17.806;2023-11-21T06:44:53;8.10;99.90
47168;DHT22;32931;47.778;17.806;2023-11-21T06:47:20;8.10;99.90
47168;DHT22;32931;47.778;17.806;2023-11-21T06:49:47;8.20;99.90
47168;DHT22;32931;47.778;17.806;2023-11-21T06:52:14;8.10;99.90
47168;DHT22;32931;47.778;17.806;2023-11-21T06:54:40;8.20;99.90
47168;DHT22;32931;47.778;17.806;2023-11-21T06:57:06;8.20;99.90
47168;DHT22;32931;47.778;17.806;2023-11-21T06:59:32;8.20;99.90
47168;DHT22;32931;47.778;17.806;2023-11-21T07:01:59;8.20;99.90
47168;DHT22;32931;47.778;17.806;2023-11-21T07:04:25;8.30;99.90
47168;DHT22;32931;47.778;17.806;2023-11-21T07:06:53;8.30;99.90
47168;DHT22;32931;47.778;17.806;2023-11-21T07:09:19;8.30;99.90
47168;DHT22;32931;47.778;17.806;2023-11-21T07:11:50;8.30;99.90
47168;DHT22;32931;47.778;17.806;2023-11-21T07:14:17;8.30;99.90
47168;DHT22;32931;47.778;17.806;2023-11-21T07:16:45;8.30;99.90
47168;DHT22;32931;47.778;17.806;2023-11-21T07:19:12;8.30;99.90
47168;DHT22;32931;47.778;17.806;2023-11-21T07:21:39;8.30;99.90
47168;DHT22;32931;47.778;17.806;2023-11-21T07:24:07;8.40;99.90
47168;DHT22;32931;47.778;17.806;2023-11-21T07:26:34;8.40;99.90
47168;DHT22;32931;47.778;17.806;2023-11-21T07:29:01;8.40;99.90
47168;DHT22;32931;47.778;17.806;2023-11-21T07:31:29;8.40;99.90
47168;DHT22;32931;47.778;17.806;2023-11-21T07:33:55;8.50;99.90
47168;DHT22;32931;47.778;17.806;2023-11-21T07:36:24;8.50;99.90
47168;DHT22;32931;47.778;17.806;2023-11-21T07:38:51;8.50;99.90
47168;DHT22;32931;47.778;17.806;2023-11-21T07:41:17;8.50;99.90
47168;DHT22;32931;47.778;17.806;2023-11-21T07:43:45;8.50;99.90
47168;DHT22;32931;47.778;17.806;2023-11-21T07:46:12;8.60;99.90
47168;DHT22;32931;47.778;17.806;2023-11-21T07:48:42;8.60;99.90
47168;DHT22;32931;47.778;17.806;2023-11-21T07:51:09;8.60;99.90
47168;DHT22;32931;47.778;17.806;2023-11-21T07:53:36;8.60;99.90
47168;DHT22;32931;47.778;17.806;2023-11-21T07:56:06;8.70;99.90
47168;DHT22;32931;47.778;17.806;2023-11-21T07:58:34;8.70;99.90
47168;DHT22;32931;47.778;17.806;2023-11-21T08:01:00;8.70;99.90
47168;DHT22;32931;47.778;17.806;2023-11-21T08:03:27;8.80;99.90
47168;DHT22;32931;47.778;17.806;2023-11-21T08:05:55;8.80;99.90
47168;DHT22;32931;47.778;17.806;2023-11-21T08:08:22;8.90;99.90
47168;DHT22;32931;47.778;17.806;2023-11-21T08:10:50;8.90;99.90
47168;DHT22;32931;47.778;17.806;2023-11-21T08:13:23;8.90;99.90
47168;DHT22;32931;47.778;17.806;2023-11-21T08:15:49;8.90;99.90
47168;DHT22;32931;47.778;17.806;2023-11-21T08:18:16;8.90;99.90
47168;DHT22;32931;47.778;17.806;2023-11-21T08:20:44;9.00;99.90
47168;DHT22;32931;47.778;17.806;2023-11-21T08:23:16;9.00;99.90
47168;DHT22;32931;47.778;17.806;2023-11-21T08:25:43;9.10;99.90
47168;DHT22;32931;47.778;17.806;2023-11-21T08:28:09;9.10;99.90
47168;DHT22;32931;47.778;17.806;2023-11-21T08:30:36;9.20;99.90
47168;DHT22;32931;47.778;17.806;2023-11-21T08:33:02;9.20;99.90
47168;DHT22;32931;47.778;17.806;2023-11-21T08:35:30;9.20;99.90
47168;DHT22;32931;47.778;17.806;2023-11-21T08:37:56;9.30;99.90
47168;DHT22;32931;47.778;17.806;2023-11-21T08:40:23;9.40;99.90
47168;DHT22;32931;47.778;17.806;2023-11-21T08:42:49;9.40;99.90
47168;DHT22;32931;47.778;17.806;2023-11-21T08:45:18;9.50;99.90
47168;DHT22;32931;47.778;17.806;2023-11-21T08:47:44;9.50;99.90
47168;DHT22;32931;47.778;17.806;2023-11-21T08:50:11;9.50;99.90
47168;DHT22;32931;47.778;17.806;2023-11-21T08:52:38;9.60;99.90
47168;DHT22;32931;47.778;17.806;2023-11-21T08:55:05;9.60;99.90
47168;DHT22;32931;47.778;17.806;2023-11-21T08:57:37;9.70;99.90
47168;DHT22;32931;47.778;17.806;2023-11-21T09:00:05;9.70;99.90
47168;DHT22;32931;47.778;17.806;2023-11-21T09:02:36;9.80;99.90
47168;DHT22;32931;47.778;17.806;2023-11-21T09:05:06;9.90;99.90
47168;DHT22;32931;47.778;17.806;2023-11-21T09:07:32;10.00;99.90
47168;DHT22;32931;47.778;17.806;2023-11-21T09:09:58;10.00;99.90
47168;DHT22;32931;47.778;17.806;2023-11-21T09:12:24;10.10;99.90
47168;DHT22;32931;47.778;17.806;2023-11-21T09:14:51;10.10;99.90
47168;DHT22;32931;47.778;17.806;2023-11-21T09:17:17;10.20;99.90
47168;DHT22;32931;47.778;17.806;2023-11-21T09:19:43;10.20;99.90
47168;DHT22;32931;47.778;17.806;2023-11-21T09:22:13;10.20;99.90
47168;DHT22;32931;47.778;17.806;2023-11-21T09:24:39;10.20;99.90
47168;DHT22;32931;47.778;17.806;2023-11-21T09:27:05;10.20;99.90
47168;DHT22;32931;47.778;17.806;2023-11-21T09:29:31;10.30;99.90
47168;DHT22;32931;47.778;17.806;2023-11-21T09:31:57;10.30;99.90
47168;DHT22;32931;47.778;17.806;2023-11-21T09:34:27;10.30;99.90
47168;DHT22;32931;47.778;17.806;2023-11-21T09:36:53;10.30;99.90
47168;DHT22;32931;47.778;17.806;2023-11-21T09:39:19;10.40;99.90
47168;DHT22;32931;47.778;17.806;2023-11-21T09:41:49;10.40;99.90
47168;DHT22;32931;47.778;17.806;2023-11-21T09:44:18;10.40;99.90
47168;DHT22;32931;47.778;17.806;2023-11-21T09:46:48;10.40;99.90
47168;DHT22;32931;47.778;17.806;2023-11-21T09:49:18;10.40;99.90
47168;DHT22;32931;47.778;17.806;2023-11-21T09:51:47;10.40;99.90
47168;DHT22;32931;47.778;17.806;2023-11-21T09:54:15;10.40;99.90
47168;DHT22;32931;47.778;17.806;2023-11-21T09:56:43;10.40;99.90
47168;DHT22;32931;47.778;17.806;2023-11-21T09:59:13;10.50;99.90
47168;DHT22;32931;47.778;17.806;2023-11-21T10:01:40;10.50;99.90
47168;DHT22;32931;47.778;17.806;2023-11-21T10:04:07;10.50;99.90
47168;DHT22;32931;47.778;17.806;2023-11-21T10:06:39;10.60;99.90
47168;DHT22;32931;47.778;17.806;2023-11-21T10:09:10;10.60;99.90
47168;DHT22;32931;47.778;17.806;2023-11-21T10:11:43;10.70;99.90
47168;DHT22;32931;47.778;17.806;2023-11-21T10:14:12;10.70;99.90
47168;DHT22;32931;47.778;17.806;2023-11-21T10:16:41;10.70;99.90
47168;DHT22;32931;47.778;17.806;2023-11-21T10:19:10;10.80;99.90
47168;DHT22;32931;47.778;17.806;2023-11-21T10:21:38;10.80;99.90
47168;DHT22;32931;47.778;17.806;2023-11-21T10:24:05;10.90;99.90
47168;DHT22;32931;47.778;17.806;2023-11-21T10:26:32;10.90;99.90
47168;DHT22;32931;47.778;17.806;2023-11-21T10:28:59;11.00;99.90
47168;DHT22;32931;47.778;17.806;2023-11-21T10:31:30;11.00;99.90
47168;DHT22;32931;47.778;17.806;2023-11-21T10:34:15;11.00;99.90
47168;DHT22;32931;47.778;17.806;2023-11-21T10:36:42;11.10;99.90
47168;DHT22;32931;47.778;17.806;2023-11-21T10:39:09;11.10;99.90
47168;DHT22;32931;47.778;17.806;2023-11-21T10:41:38;11.10;99.90
47168;DHT22;32931;47.778;17.806;2023-11-21T10:44:04;11.10;99.90
47168;DHT22;32931;47.778;17.806;2023-11-21T10:46:32;11.10;99.90
47168;DHT22;32931;47.778;17.806;2023-11-21T10:49:00;11.10;99.90
47168;DHT22;32931;47.778;17.806;2023-11-21T10:51:26;11.10;99.90
47168;DHT22;32931;47.778;17.806;2023-11-21T10:53:52;11.10;99.90
47168;DHT22;32931;47.778;17.806;2023-11-21T10:56:19;11.20;99.90
47168;DHT22;32931;47.778;17.806;2023-11-21T10:58:49;11.20;99.90
47168;DHT22;32931;47.778;17.806;2023-11-21T11:01:17;11.20;99.90
47168;DHT22;32931;47.778;17.806;2023-11-21T11:03:44;11.30;99.90
47168;DHT22;32931;47.778;17.806;2023-11-21T11:06:12;11.30;99.90
47168;DHT22;32931;47.778;17.806;2023-11-21T11:08:39;11.30;99.90
47168;DHT22;32931;47.778;17.806;2023-11-21T11:11:06;11.40;99.90
47168;DHT22;32931;47.778;17.806;2023-11-21T11:13:32;11.40;99.90
47168;DHT22;32931;47.778;17.806;2023-11-21T11:16:00;11.40;99.90
47168;DHT22;32931;47.778;17.806;2023-11-21T11:18:30;11.50;99.90
47168;DHT22;32931;47.778;17.806;2023-11-21T11:21:38;11.60;99.90
47168;DHT22;32931;47.778;17.806;2023-11-21T11:24:20;11.60;99.90
47168;DHT22;32931;47.778;17.806;2023-11-21T11:27:25;11.60;99.90
47168;DHT22;32931;47.778;17.806;2023-11-21T11:35:52;11.60;99.90
47168;DHT22;32931;47.778;17.806;2023-11-21T11:38:21;11.60;99.90
47168;DHT22;32931;47.778;17.806;2023-11-21T11:40:53;11.60;99.90
47168;DHT22;32931;47.778;17.806;2023-11-21T11:43:26;11.60;99.90
47168;DHT22;32931;47.778;17.806;2023-11-21T11:45:56;11.50;99.90
47168;DHT22;32931;47.778;17.806;2023-11-21T11:48:23;11.50;99.90
47168;DHT22;32931;47.778;17.806;2023-11-21T11:51:12;11.60;99.90
47168;DHT22;32931;47.778;17.806;2023-11-21T11:53:44;11.60;99.90
47168;DHT22;32931;47.778;17.806;2023-11-21T11:56:34;11.60;99.90
47168;DHT22;32931;47.778;17.806;2023-11-21T11:59:03;11.60;99.90
47168;DHT22;32931;47.778;17.806;2023-11-21T12:01:32;11.60;99.90
47168;DHT22;32931;47.778;17.806;2023-11-21T12:06:43;11.60;99.90
47168;DHT22;32931;47.778;17.806;2023-11-21T12:09:18;11.50;99.90
47168;DHT22;32931;47.778;17.806;2023-11-21T12:11:46;11.50;99.90
47168;DHT22;32931;47.778;17.806;2023-11-21T12:14:13;11.50;99.90
47168;DHT22;32931;47.778;17.806;2023-11-21T12:16:40;11.40;99.90
47168;DHT22;32931;47.778;17.806;2023-11-21T12:19:06;11.50;99.90
47168;DHT22;32931;47.778;17.806;2023-11-21T12:21:32;11.40;99.90
47168;DHT22;32931;47.778;17.806;2023-11-21T12:23:59;11.40;99.90
47168;DHT22;32931;47.778;17.806;2023-11-21T12:26:25;11.40;99.90
47168;DHT22;32931;47.778;17.806;2023-11-21T12:28:54;11.40;99.90
47168;DHT22;32931;47.778;17.806;2023-11-21T12:31:23;11.30;99.90
47168;DHT22;32931;47.778;17.806;2023-11-21T12:33:49;11.30;99.90
47168;DHT22;32931;47.778;17.806;2023-11-21T12:36:16;11.30;99.90
47168;DHT22;32931;47.778;17.806;2023-11-21T12:38:43;11.20;99.90
47168;DHT22;32931;47.778;17.806;2023-11-21T12:41:12;11.30;99.90
47168;DHT22;32931;47.778;17.806;2023-11-21T12:43:38;11.20;99.90
47168;DHT22;32931;47.778;17.806;2023-11-21T12:46:09;11.30;99.90
47168;DHT22;32931;47.778;17.806;2023-11-21T12:48:39;11.30;99.90
47168;DHT22;32931;47.778;17.806;2023-11-21T12:51:10;11.30;99.90
47168;DHT22;32931;47.778;17.806;2023-11-21T12:53:44;11.30;99.90
47168;DHT22;32931;47.778;17.806;2023-11-21T12:56:11;11.40;99.90
47168;DHT22;32931;47.778;17.806;2023-11-21T12:58:39;11.40;99.90
47168;DHT22;32931;47.778;17.806;2023-11-21T13:01:06;11.30;99.90
47168;DHT22;32931;47.778;17.806;2023-11-21T13:03:38;11.30;99.90
47168;DHT22;32931;47.778;17.806;2023-11-21T13:06:06;11.30;99.90
47168;DHT22;32931;47.778;17.806;2023-11-21T13:08:33;11.30;99.90
47168;DHT22;32931;47.778;17.806;2023-11-21T13:11:00;11.30;99.90
47168;DHT22;32931;47.778;17.806;2023-11-21T13:13:28;11.30;99.90
47168;DHT22;32931;47.778;17.806;2023-11-21T13:15:56;11.40;99.90
47168;DHT22;32931;47.778;17.806;2023-11-21T13:18:26;11.40;99.90
47168;DHT22;32931;47.778;17.806;2023-11-21T13:21:09;11.40;99.90
47168;DHT22;32931;47.778;17.806;2023-11-21T13:23:40;11.40;99.90
47168;DHT22;32931;47.778;17.806;2023-11-21T13:26:07;11.40;99.90
47168;DHT22;32931;47.778;17.806;2023-11-21T13:28:35;11.40;99.90
47168;DHT22;32931;47.778;17.806;2023-11-21T13:31:04;11.50;99.90
47168;DHT22;32931;47.778;17.806;2023-11-21T13:33:48;11.50;99.90
47168;DHT22;32931;47.778;17.806;2023-11-21T13:36:24;11.50;99.90
47168;DHT22;32931;47.778;17.806;2023-11-21T13:38:51;11.50;99.90
47168;DHT22;32931;47.778;17.806;2023-11-21T13:41:21;11.50;99.90
47168;DHT22;32931;47.778;17.806;2023-11-21T13:43:53;11.50;99.90
47168;DHT22;32931;47.778;17.806;2023-11-21T13:46:29;11.50;99.90
47168;DHT22;32931;47.778;17.806;2023-11-21T13:48:59;11.50;99.90
47168;DHT22;32931;47.778;17.806;2023-11-21T13:51:26;11.50;99.90
47168;DHT22;32931;47.778;17.806;2023-11-21T13:54:06;11.50;99.90
47168;DHT22;32931;47.778;17.806;2023-11-21T13:56:38;11.40;99.90
47168;DHT22;32931;47.778;17.806;2023-11-21T13:59:06;11.40;99.90
47168;DHT22;32931;47.778;17.806;2023-11-21T14:01:51;11.40;99.90
47168;DHT22;32931;47.778;17.806;2023-11-21T14:04:37;11.40;99.90
47168;DHT22;32931;47.778;17.806;2023-11-21T14:07:25;11.30;99.90
47168;DHT22;32931;47.778;17.806;2023-11-21T14:10:04;11.30;99.90
47168;DHT22;32931;47.778;17.806;2023-11-21T14:12:33;11.40;99.90
47168;DHT22;32931;47.778;17.806;2023-11-21T14:15:02;11.30;99.90
47168;DHT22;32931;47.778;17.806;2023-11-21T14:17:33;11.30;99.90
47168;DHT22;32931;47.778;17.806;2023-11-21T14:20:00;11.30;99.90
47168;DHT22;32931;47.778;17.806;2023-11-21T14:22:27;11.20;99.90
47168;DHT22;32931;47.778;17.806;2023-11-21T14:24:54;11.20;99.90
47168;DHT22;32931;47.778;17.806;2023-11-21T14:27:24;11.20;99.90
47168;DHT22;32931;47.778;17.806;2023-11-21T14:29:50;11.20;99.90
47168;DHT22;32931;47.778;17.806;2023-11-21T14:32:18;11.10;99.90
47168;DHT22;32931;47.778;17.806;2023-11-21T14:34:44;11.10;99.90
47168;DHT22;32931;47.778;17.806;2023-11-21T14:37:13;11.10;99.90
47168;DHT22;32931;47.778;17.806;2023-11-21T14:39:39;11.00;99.90
47168;DHT22;32931;47.778;17.806;2023-11-21T14:42:10;10.90;99.90
47168;DHT22;32931;47.778;17.806;2023-11-21T14:44:36;10.90;99.90
47168;DHT22;32931;47.778;17.806;2023-11-21T14:47:07;10.80;99.90
47168;DHT22;32931;47.778;17.806;2023-11-21T14:49:44;10.80;99.90
47168;DHT22;32931;47.778;17.806;2023-11-21T14:52:22;10.70;99.90
47168;DHT22;32931;47.778;17.806;2023-11-21T14:55:01;10.70;99.90
47168;DHT22;32931;47.778;17.806;2023-11-21T14:57:50;10.60;99.90
47168;DHT22;32931;47.778;17.806;2023-11-21T15:00:17;10.50;99.90
47168;DHT22;32931;47.778;17.806;2023-11-21T15:03:02;10.40;99.90
47168;DHT22;32931;47.778;17.806;2023-11-21T15:05:29;10.40;99.90
47168;DHT22;32931;47.778;17.806;2023-11-21T15:07:56;10.30;99.90
47168;DHT22;32931;47.778;17.806;2023-11-21T15:10:34;10.30;99.90
47168;DHT22;32931;47.778;17.806;2023-11-21T15:13:14;10.20;99.90
47168;DHT22;32931;47.778;17.806;2023-11-21T15:15:43;10.10;99.90
47168;DHT22;32931;47.778;17.806;2023-11-21T15:18:09;10.10;99.90
47168;DHT22;32931;47.778;17.806;2023-11-21T15:20:39;9.90;99.90
47168;DHT22;32931;47.778;17.806;2023-11-21T15:23:07;9.90;99.90
47168;DHT22;32931;47.778;17.806;2023-11-21T15:25:34;9.80;99.90
47168;DHT22;32931;47.778;17.806;2023-11-21T15:28:01;9.80;99.90
47168;DHT22;32931;47.778;17.806;2023-11-21T15:30:28;9.70;99.90
47168;DHT22;32931;47.778;17.806;2023-11-21T15:33:01;9.60;99.90
47168;DHT22;32931;47.778;17.806;2023-11-21T15:35:29;9.60;99.90
47168;DHT22;32931;47.778;17.806;2023-11-21T15:37:56;9.50;99.90
47168;DHT22;32931;47.778;17.806;2023-11-21T15:40:24;9.40;99.90